createdAt,value
2018-03-28T00:01:53.257Z,3.66
2018-03-28T00:04:20.804Z,3.67
2018-03-28T00:06:48.225Z,3.59
2018-03-28T00:09:15.677Z,3.57
2018-03-28T00:11:43.165Z,3.54
2018-03-28T00:14:10.613Z,3.44
2018-03-28T00:16:38.097Z,3.40
2018-03-28T00:19:05.550Z,3.38
2018-03-28T00:21:33.142Z,3.42
2018-03-28T00:24:00.587Z,3.42
2018-03-28T00:26:28.086Z,3.38
2018-03-28T00:28:55.541Z,3.34
2018-03-28T00:31:23.029Z,3.21
2018-03-28T00:33:50.487Z,3.20
2018-03-28T00:36:17.969Z,3.16
2018-03-28T00:38:45.438Z,3.18
2018-03-28T00:41:12.925Z,3.15
2018-03-28T00:43:40.380Z,3.20
2018-03-28T00:46:08.001Z,3.27
2018-03-28T00:48:35.467Z,3.25
2018-03-28T00:51:14.553Z,3.22
2018-03-28T00:53:41.999Z,3.21
2018-03-28T00:56:09.478Z,3.41
2018-03-28T00:58:36.929Z,3.47
2018-03-28T01:01:04.378Z,3.50
2018-03-28T01:03:31.861Z,3.31
2018-03-28T01:05:59.309Z,3.25
2018-03-28T01:08:26.789Z,3.22
2018-03-28T01:10:54.241Z,3.21
2018-03-28T01:13:21.725Z,3.20
2018-03-28T01:15:49.262Z,3.26
2018-03-28T01:18:16.746Z,3.22
2018-03-28T01:20:44.202Z,3.30
2018-03-28T01:23:11.680Z,3.27
2018-03-28T01:25:39.131Z,3.25
2018-03-28T01:28:06.614Z,3.20
2018-03-28T01:30:34.064Z,3.22
2018-03-28T01:33:01.559Z,3.23
2018-03-28T01:35:29.015Z,3.19
2018-03-28T01:37:56.497Z,3.24
2018-03-28T01:40:24.002Z,3.28
2018-03-28T01:42:51.469Z,3.29
2018-03-28T01:45:18.929Z,3.25
2018-03-28T01:47:46.504Z,3.26
2018-03-28T01:50:14.686Z,3.19
2018-03-28T01:52:42.357Z,3.12
2018-03-28T01:55:09.813Z,3.19
2018-03-28T01:57:37.265Z,3.28
2018-03-28T02:00:05.509Z,3.27
2018-03-28T02:02:32.970Z,3.31
2018-03-28T02:05:00.450Z,3.43
2018-03-28T02:07:27.901Z,3.45
2018-03-28T02:09:55.388Z,3.39
2018-03-28T02:12:22.845Z,3.38
2018-03-28T02:14:50.327Z,3.43
2018-03-28T02:17:18.690Z,3.42
2018-03-28T02:19:47.138Z,3.30
2018-03-28T02:22:14.597Z,3.46
2018-03-28T02:24:42.085Z,3.35
2018-03-28T02:27:09.605Z,3.46
2018-03-28T02:29:37.098Z,3.38
2018-03-28T02:32:04.626Z,3.35
2018-03-28T02:34:32.163Z,3.42
2018-03-28T02:36:59.642Z,3.55
2018-03-28T02:39:27.126Z,3.52
2018-03-28T02:41:54.592Z,3.46
2018-03-28T02:44:22.422Z,3.43
2018-03-28T02:46:49.878Z,3.43
2018-03-28T02:49:17.331Z,3.49
2018-03-28T02:51:44.815Z,3.47
2018-03-28T02:54:12.270Z,3.56
2018-03-28T02:56:39.774Z,3.50
2018-03-28T02:59:07.229Z,3.49
2018-03-28T03:01:34.708Z,3.43
2018-03-28T03:04:02.167Z,3.43
2018-03-28T03:06:29.660Z,3.48
2018-03-28T03:08:57.143Z,3.39
2018-03-28T03:11:24.620Z,3.43
2018-03-28T03:13:52.069Z,3.51
2018-03-28T03:16:19.570Z,3.46
2018-03-28T03:18:47.034Z,3.36
2018-03-28T03:21:15.502Z,3.46
2018-03-28T03:23:42.953Z,3.38
2018-03-28T03:26:10.432Z,3.42
2018-03-28T03:28:37.881Z,3.46
2018-03-28T03:31:06.350Z,3.45
2018-03-28T03:33:34.701Z,3.47
2018-03-28T03:36:02.205Z,3.37
2018-03-28T03:38:29.658Z,3.42
2018-03-28T03:40:57.112Z,3.45
2018-03-28T03:43:24.610Z,3.50
2018-03-28T03:45:52.070Z,3.50
2018-03-28T03:48:19.557Z,3.43
2018-03-28T03:50:48.017Z,3.41
2018-03-28T03:53:15.505Z,3.34
2018-03-28T03:55:42.952Z,3.46
2018-03-28T03:58:10.436Z,3.42
2018-03-28T04:00:37.885Z,3.42
2018-03-28T04:03:05.365Z,3.40
2018-03-28T04:05:32.820Z,3.39
2018-03-28T04:08:00.301Z,3.42
2018-03-28T04:10:27.763Z,3.45
2018-03-28T04:12:55.280Z,3.42
2018-03-28T04:15:23.676Z,3.33
2018-03-28T04:17:51.197Z,3.45
2018-03-28T04:20:18.668Z,3.36
2018-03-28T04:22:46.182Z,3.40
2018-03-28T04:25:13.666Z,3.52
2018-03-28T04:27:41.177Z,3.46
2018-03-28T04:30:08.661Z,3.42
2018-03-28T04:32:36.141Z,3.43
2018-03-28T04:35:03.648Z,3.47
2018-03-28T04:37:31.139Z,3.34
2018-03-28T04:39:58.656Z,3.28
2018-03-28T04:42:26.133Z,3.29
2018-03-28T04:44:54.596Z,3.34
2018-03-28T04:47:22.983Z,3.38
2018-03-28T04:49:50.496Z,3.43
2018-03-28T04:52:17.972Z,3.31
2018-03-28T04:54:46.464Z,3.20
2018-03-28T04:57:13.936Z,3.34
2018-03-28T04:59:41.426Z,3.41
2018-03-28T05:02:08.881Z,3.20
2018-03-28T05:04:37.281Z,3.25
2018-03-28T05:07:04.740Z,3.28
2018-03-28T05:09:32.251Z,3.19
2018-03-28T05:12:00.668Z,3.14
2018-03-28T05:14:28.168Z,3.21
2018-03-28T05:16:55.646Z,3.14
2018-03-28T05:19:23.156Z,3.27
2018-03-28T05:21:51.600Z,3.11
2018-03-28T05:24:20.005Z,3.19
2018-03-28T05:26:47.452Z,3.22
2018-03-28T05:29:14.933Z,3.18
2018-03-28T05:31:42.383Z,3.23
2018-03-28T05:34:09.886Z,3.19
2018-03-28T05:36:37.341Z,3.26
2018-03-28T05:39:06.585Z,3.19
2018-03-28T05:41:35.068Z,3.21
2018-03-28T05:44:02.524Z,3.31
2018-03-28T05:46:30.040Z,3.36
2018-03-28T05:48:57.498Z,3.36
2018-03-28T05:51:24.990Z,3.44
2018-03-28T05:53:52.465Z,3.41
2018-03-28T05:56:19.955Z,3.47
2018-03-28T05:58:47.425Z,3.50
2018-03-28T06:01:14.918Z,3.57
2018-03-28T06:03:42.374Z,3.68
2018-03-28T06:06:09.866Z,3.73
2018-03-28T06:08:37.317Z,3.82
2018-03-28T06:11:04.895Z,3.83
2018-03-28T06:13:32.374Z,3.68
2018-03-28T06:15:59.873Z,3.74
2018-03-28T06:18:27.409Z,3.72
2018-03-28T06:20:54.885Z,4.09
2018-03-28T06:23:22.342Z,4.08
2018-03-28T06:25:49.797Z,3.90
2018-03-28T06:28:18.293Z,3.98
2018-03-28T06:30:45.745Z,4.06
2018-03-28T06:33:13.234Z,4.03
2018-03-28T06:35:40.692Z,4.24
2018-03-28T06:38:08.194Z,4.18
2018-03-28T06:40:35.641Z,4.14
2018-03-28T06:43:03.130Z,4.14
2018-03-28T06:45:30.580Z,4.39
2018-03-28T06:47:58.064Z,4.38
2018-03-28T06:50:25.513Z,4.45
2018-03-28T06:52:52.993Z,4.41
2018-03-28T06:55:21.406Z,4.40
2018-03-28T06:57:48.908Z,4.33
2018-03-28T07:00:16.445Z,4.34
2018-03-28T07:02:44.936Z,4.44
2018-03-28T07:05:12.494Z,4.41
2018-03-28T07:07:39.977Z,4.48
2018-03-28T07:10:07.433Z,4.89
2018-03-28T07:12:34.914Z,4.83
2018-03-28T07:15:02.373Z,4.83
2018-03-28T07:17:29.890Z,4.62
2018-03-28T07:19:57.344Z,4.68
2018-03-28T07:22:24.796Z,4.62
2018-03-28T07:24:52.304Z,4.55
2018-03-28T07:27:19.766Z,4.74
2018-03-28T07:29:48.291Z,4.82
2018-03-28T07:32:15.745Z,5.10
2018-03-28T07:34:43.233Z,5.28
2018-03-28T07:37:10.685Z,5.25
2018-03-28T07:39:38.179Z,5.45
2018-03-28T07:42:05.638Z,5.12
2018-03-28T07:44:33.137Z,5.17
2018-03-28T07:47:00.601Z,5.49
2018-03-28T07:49:28.089Z,5.42
2018-03-28T07:51:55.552Z,5.24
2018-03-28T07:54:23.025Z,5.16
2018-03-28T07:56:50.476Z,5.26
2018-03-28T07:59:17.969Z,5.32
2018-03-28T08:01:45.423Z,5.02
2018-03-28T08:04:12.877Z,5.06
2018-03-28T08:06:40.354Z,5.08
2018-03-28T08:09:08.002Z,5.14
2018-03-28T08:11:35.513Z,5.29
2018-03-28T08:14:02.962Z,5.11
2018-03-28T08:16:30.453Z,5.20
2018-03-28T08:18:57.908Z,5.45
2018-03-28T08:21:25.414Z,5.26
2018-03-28T08:23:52.877Z,5.35
2018-03-28T08:26:20.358Z,5.29
2018-03-28T08:28:47.826Z,5.41
2018-03-28T08:31:15.334Z,5.26
2018-03-28T08:33:42.787Z,5.38
2018-03-28T08:36:11.174Z,5.45
2018-03-28T08:38:38.630Z,5.10
2018-03-28T08:41:06.122Z,5.39
2018-03-28T08:43:35.504Z,5.45
2018-03-28T08:46:03.940Z,5.53
2018-03-28T08:48:32.398Z,5.37
2018-03-28T08:50:59.905Z,5.32
2018-03-28T08:53:28.337Z,5.50
2018-03-28T08:55:56.758Z,5.24
2018-03-28T08:58:24.210Z,5.28
2018-03-28T09:00:51.713Z,5.71
2018-03-28T09:03:20.128Z,5.41
2018-03-28T09:05:48.597Z,5.63
2018-03-28T09:08:18.034Z,5.73
2018-03-28T09:10:45.513Z,5.93
2018-03-28T09:13:13.006Z,6.15
2018-03-28T09:15:41.385Z,6.45
2018-03-28T09:18:09.806Z,5.88
2018-03-28T09:20:37.259Z,5.90
2018-03-28T09:23:04.814Z,6.14
2018-03-28T09:25:32.226Z,6.21
2018-03-28T09:27:59.717Z,6.47
2018-03-28T09:30:27.168Z,6.18
2018-03-28T09:32:54.644Z,6.22
2018-03-28T09:35:22.117Z,5.87
2018-03-28T09:37:49.644Z,5.93
2018-03-28T09:40:17.093Z,6.08
2018-03-28T09:42:44.587Z,5.91
2018-03-28T09:45:12.054Z,5.65
2018-03-28T09:47:40.494Z,5.69
2018-03-28T09:50:07.946Z,5.68
2018-03-28T09:52:35.442Z,5.76
2018-03-28T09:55:03.869Z,5.65
2018-03-28T09:57:33.317Z,5.64
2018-03-28T10:00:00.769Z,5.77
2018-03-28T10:02:31.017Z,5.53
2018-03-28T10:04:59.438Z,5.73
2018-03-28T10:07:26.885Z,5.56
2018-03-28T10:09:54.374Z,5.27
2018-03-28T10:12:21.819Z,5.47
2018-03-28T10:14:49.300Z,5.38
2018-03-28T10:17:17.800Z,5.54
2018-03-28T10:19:45.258Z,5.75
2018-03-28T10:22:12.718Z,6.05
2018-03-28T10:24:40.204Z,5.76
2018-03-28T10:27:07.681Z,5.72
2018-03-28T10:29:35.164Z,5.66
2018-03-28T10:32:02.618Z,5.72
2018-03-28T10:34:30.131Z,5.55
2018-03-28T10:36:59.528Z,5.42
2018-03-28T10:39:27.014Z,5.53
2018-03-28T10:41:56.413Z,5.50
2018-03-28T10:44:24.918Z,5.34
2018-03-28T10:46:52.377Z,5.16
2018-03-28T10:49:19.874Z,5.32
2018-03-28T10:51:47.345Z,5.37
2018-03-28T10:54:15.725Z,5.24
2018-03-28T10:56:43.204Z,5.09
2018-03-28T10:59:10.652Z,5.16
2018-03-28T11:01:38.130Z,5.15
2018-03-28T11:04:05.575Z,5.09
2018-03-28T11:06:33.052Z,5.09
2018-03-28T11:09:00.508Z,5.38
2018-03-28T11:11:28.025Z,5.36
2018-03-28T11:13:55.481Z,5.31
2018-03-28T11:16:22.981Z,5.32
2018-03-28T11:18:50.649Z,5.35
2018-03-28T11:21:18.133Z,5.41
2018-03-28T11:23:45.699Z,5.10
2018-03-28T11:26:13.188Z,5.21
2018-03-28T11:28:40.660Z,5.46
2018-03-28T11:31:08.141Z,5.38
2018-03-28T11:33:35.597Z,5.34
2018-03-28T11:36:03.080Z,5.25
2018-03-28T11:38:31.472Z,5.38
2018-03-28T11:40:58.958Z,5.49
2018-03-28T11:43:27.337Z,5.56
2018-03-28T11:45:54.793Z,5.48
2018-03-28T11:48:22.307Z,5.69
2018-03-28T11:50:50.718Z,5.93
2018-03-28T11:53:19.115Z,6.03
2018-03-28T11:55:46.569Z,6.13
2018-03-28T11:58:14.052Z,6.87
2018-03-28T12:00:41.518Z,6.25
2018-03-28T12:03:09.015Z,6.37
2018-03-28T12:05:36.490Z,6.49
2018-03-28T12:08:03.977Z,6.63
2018-03-28T12:10:32.412Z,7.18
2018-03-28T12:12:59.942Z,7.32
2018-03-28T12:15:27.401Z,7.48
2018-03-28T12:17:54.889Z,7.10
2018-03-28T12:20:22.347Z,7.09
2018-03-28T12:22:49.937Z,7.28
2018-03-28T12:25:17.531Z,7.01
2018-03-28T12:27:46.119Z,6.83
2018-03-28T12:30:13.657Z,6.41
2018-03-28T12:32:41.164Z,6.40
2018-03-28T12:35:08.649Z,6.41
2018-03-28T12:37:36.105Z,6.17
2018-03-28T12:40:04.566Z,6.19
2018-03-28T12:42:32.029Z,5.59
2018-03-28T12:44:59.541Z,5.47
2018-03-28T12:47:28.139Z,5.24
2018-03-28T12:49:55.766Z,5.28
2018-03-28T12:52:26.254Z,5.39
2018-03-28T12:54:54.737Z,5.40
2018-03-28T12:57:22.410Z,5.58
2018-03-28T12:59:49.747Z,5.45
2018-03-28T13:02:17.230Z,5.28
2018-03-28T13:04:49.095Z,5.39
2018-03-28T13:07:16.546Z,5.29
2018-03-28T13:09:44.082Z,5.40
2018-03-28T13:12:11.659Z,5.21
2018-03-28T13:14:39.327Z,5.23
2018-03-28T13:17:06.784Z,5.44
2018-03-28T13:19:34.297Z,5.28
2018-03-28T13:22:01.749Z,5.04
2018-03-28T13:24:29.261Z,5.43
2018-03-28T13:26:56.716Z,5.30
2018-03-28T13:29:24.178Z,5.15
2018-03-28T13:31:51.661Z,5.23
2018-03-28T13:34:19.173Z,5.42
2018-03-28T13:36:46.682Z,5.28
2018-03-28T13:39:15.131Z,5.16
2018-03-28T13:41:42.617Z,5.06
2018-03-28T13:44:12.044Z,5.21
2018-03-28T13:46:39.538Z,5.27
2018-03-28T13:49:07.016Z,5.42
2018-03-28T13:51:35.464Z,5.28
2018-03-28T13:54:02.921Z,5.02
2018-03-28T13:56:31.391Z,5.02
2018-03-28T13:58:58.859Z,5.16
2018-03-28T14:01:26.381Z,5.20
2018-03-28T14:03:54.753Z,5.13
2018-03-28T14:06:22.244Z,4.87
2018-03-28T14:08:49.718Z,4.82
2018-03-28T14:11:17.218Z,4.85
2018-03-28T14:13:44.670Z,4.74
2018-03-28T14:16:13.101Z,4.95
2018-03-28T14:18:40.618Z,4.76
2018-03-28T14:21:08.069Z,4.70
2018-03-28T14:23:35.526Z,4.76
2018-03-28T14:26:03.050Z,4.62
2018-03-28T14:28:30.535Z,4.65
2018-03-28T14:30:58.006Z,4.60
2018-03-28T14:33:25.489Z,4.54
2018-03-28T14:35:52.953Z,4.50
2018-03-28T14:38:21.428Z,4.54
2018-03-28T14:40:49.750Z,4.63
2018-03-28T14:43:17.229Z,4.71
2018-03-28T14:45:45.650Z,4.74
2018-03-28T14:48:14.130Z,4.72
2018-03-28T14:50:42.578Z,4.73
2018-03-28T14:53:10.094Z,4.70
2018-03-28T14:55:37.535Z,4.51
2018-03-28T14:58:05.235Z,4.69
2018-03-28T15:00:32.687Z,4.82
2018-03-28T15:03:00.190Z,4.54
2018-03-28T15:05:28.650Z,4.72
2018-03-28T15:07:57.016Z,4.62
2018-03-28T15:10:24.476Z,4.85
2018-03-28T15:12:52.896Z,5.09
2018-03-28T15:15:21.345Z,4.96
2018-03-28T15:17:48.837Z,4.78
2018-03-28T15:20:16.383Z,4.75
2018-03-28T15:22:43.837Z,4.79
2018-03-28T15:25:11.342Z,4.76
2018-03-28T15:27:38.793Z,4.59
2018-03-28T15:30:06.281Z,4.47
2018-03-28T15:32:33.742Z,4.47
2018-03-28T15:35:01.224Z,4.43
2018-03-28T15:37:29.684Z,4.47
2018-03-28T15:39:57.180Z,4.28
2018-03-28T15:42:24.646Z,4.38
2018-03-28T15:44:52.143Z,4.28
2018-03-28T15:47:19.597Z,4.27
2018-03-28T15:49:47.080Z,4.09
2018-03-28T15:52:14.537Z,4.21
2018-03-28T15:54:42.034Z,4.31
2018-03-28T15:57:09.480Z,4.35
2018-03-28T15:59:37.909Z,4.35
2018-03-28T16:02:05.357Z,4.17
2018-03-28T16:04:33.797Z,4.21
2018-03-28T16:07:02.233Z,4.15
2018-03-28T16:09:30.652Z,4.17
2018-03-28T16:11:58.117Z,4.21
2018-03-28T16:14:25.572Z,4.17
2018-03-28T16:16:53.121Z,4.12
2018-03-28T16:19:20.573Z,4.19
2018-03-28T16:21:51.352Z,4.26
2018-03-28T16:24:18.815Z,4.22
2018-03-28T16:26:46.309Z,4.27
2018-03-28T16:29:13.757Z,4.36
2018-03-28T16:31:41.298Z,4.35
2018-03-28T16:34:09.701Z,4.26
2018-03-28T16:36:37.250Z,4.24
2018-03-28T16:39:04.690Z,4.24
2018-03-28T16:41:32.165Z,4.15
2018-03-28T16:43:59.618Z,4.21
2018-03-28T16:46:27.097Z,4.08
2018-03-28T16:48:57.617Z,4.11
2018-03-28T16:51:25.107Z,4.16
2018-03-28T16:53:52.561Z,4.09
2018-03-28T16:56:20.064Z,4.08
2018-03-28T16:58:49.472Z,4.17
2018-03-28T17:01:16.970Z,4.20
2018-03-28T17:03:44.456Z,4.22
2018-03-28T17:06:11.972Z,4.15
2018-03-28T17:08:43.137Z,4.18
2018-03-28T17:11:10.587Z,4.08
2018-03-28T17:13:38.145Z,4.00
2018-03-28T17:16:05.600Z,4.06
2018-03-28T17:18:33.084Z,3.97
2018-03-28T17:21:00.618Z,3.97
2018-03-28T17:23:28.164Z,3.93
2018-03-28T17:25:56.612Z,3.88
2018-03-28T17:28:25.037Z,3.92
2018-03-28T17:30:52.589Z,4.03
2018-03-28T17:33:20.073Z,4.00
2018-03-28T17:35:47.525Z,3.99
2018-03-28T17:38:15.005Z,4.02
2018-03-28T17:40:43.426Z,4.08
2018-03-28T17:43:11.920Z,3.99
2018-03-28T17:45:40.365Z,3.85
2018-03-28T17:48:07.854Z,3.82
2018-03-28T17:50:35.321Z,3.77
2018-03-28T17:53:03.825Z,3.67
2018-03-28T17:55:31.270Z,3.80
2018-03-28T17:57:58.769Z,3.68
2018-03-28T18:03:28.552Z,3.50
2018-03-28T18:05:56.033Z,3.31
2018-03-28T18:08:23.777Z,3.33
2018-03-28T18:10:51.238Z,3.37
2018-03-28T18:13:18.729Z,3.28
2018-03-28T18:15:46.184Z,3.16
2018-03-28T18:18:13.638Z,2.88
2018-03-28T18:20:41.117Z,2.77
2018-03-28T18:23:09.490Z,2.55
2018-03-28T18:25:38.954Z,2.46
2018-03-28T18:28:06.500Z,2.24
2018-03-28T18:33:05.576Z,2.13
2018-03-28T18:35:33.066Z,2.06
2018-03-28T18:38:00.519Z,2.00
2018-03-28T18:40:28.063Z,1.86
2018-03-28T18:42:55.494Z,1.87
2018-03-28T18:45:22.977Z,1.91
2018-03-28T18:47:50.437Z,1.89
2018-03-28T18:50:17.935Z,1.79
2018-03-28T18:52:45.387Z,1.85
2018-03-28T18:55:12.873Z,1.85
2018-03-28T18:57:40.331Z,1.75
2018-03-28T19:00:07.806Z,1.75
2018-03-28T19:02:35.253Z,1.68
2018-03-28T19:05:02.741Z,1.82
2018-03-28T19:07:30.227Z,1.69
2018-03-28T19:09:57.686Z,1.76
2018-03-28T19:12:25.175Z,1.60
2018-03-28T19:14:52.757Z,1.60
2018-03-28T19:17:20.252Z,1.67
2018-03-28T19:19:47.706Z,1.62
2018-03-28T19:22:15.192Z,1.63
2018-03-28T19:24:43.551Z,1.59
2018-03-28T19:27:11.045Z,1.52
2018-03-28T19:29:38.513Z,1.53
2018-03-28T19:32:06.000Z,1.52
2018-03-28T19:34:33.452Z,1.49
2018-03-28T19:37:00.949Z,1.38
2018-03-28T19:39:29.378Z,1.40
2018-03-28T19:41:56.885Z,1.48
2018-03-28T19:44:24.356Z,1.34
2018-03-28T19:46:51.840Z,1.33
2018-03-28T19:49:19.297Z,1.35
2018-03-28T19:51:46.787Z,1.35
2018-03-28T19:54:15.184Z,1.28
2018-03-28T19:56:43.658Z,1.33
2018-03-28T19:59:11.113Z,1.22
2018-03-28T20:01:38.605Z,1.24
2018-03-28T20:04:06.061Z,1.29
2018-03-28T20:06:33.519Z,1.28
2018-03-28T20:09:01.974Z,1.20
2018-03-28T20:11:29.447Z,1.41
2018-03-28T20:13:56.933Z,1.29
2018-03-28T20:16:24.401Z,1.20
2018-03-28T20:18:51.889Z,1.24
2018-03-28T20:21:19.387Z,1.16
2018-03-28T20:23:47.832Z,1.18
2018-03-28T20:26:15.281Z,1.08
2018-03-28T20:28:42.761Z,0.98
2018-03-28T20:31:10.212Z,1.06
2018-03-28T20:33:37.753Z,1.01
2018-03-28T20:36:05.309Z,1.06
2018-03-28T20:38:32.785Z,1.07
2018-03-28T20:41:00.241Z,1.02
2018-03-28T20:43:27.728Z,1.07
2018-03-28T20:45:55.179Z,1.05
2018-03-28T20:48:22.877Z,0.96
2018-03-28T20:50:50.373Z,1.03
2018-03-28T20:53:17.848Z,0.98
2018-03-28T20:55:45.322Z,1.05
2018-03-28T20:58:12.809Z,1.00
2018-03-28T21:00:40.283Z,1.01
2018-03-28T21:03:07.854Z,1.09
2018-03-28T21:05:35.316Z,1.07
2018-03-28T21:08:02.820Z,0.97
2018-03-28T21:10:31.214Z,1.05
2018-03-28T21:12:58.681Z,1.03
2018-03-28T21:15:26.181Z,1.07
2018-03-28T21:17:53.644Z,1.03
2018-03-28T21:20:22.110Z,0.92
2018-03-28T21:22:49.579Z,0.93
2018-03-28T21:25:17.070Z,0.95
2018-03-28T21:27:44.539Z,0.97
2018-03-28T21:30:12.116Z,0.98
2018-03-28T21:32:39.586Z,0.92
2018-03-28T21:35:07.194Z,0.97
2018-03-28T21:37:34.646Z,0.94
2018-03-28T21:40:02.149Z,0.91
2018-03-28T21:42:29.605Z,0.87
2018-03-28T21:44:57.137Z,0.90
2018-03-28T21:47:24.589Z,0.84
2018-03-28T21:49:52.081Z,0.87
2018-03-28T21:52:19.539Z,0.91
2018-03-28T21:54:47.039Z,0.86
2018-03-28T21:57:14.502Z,0.81
2018-03-28T21:59:42.026Z,0.84
2018-03-28T22:02:09.525Z,0.82
2018-03-28T22:04:37.034Z,0.91
2018-03-28T22:07:04.531Z,0.87
2018-03-28T22:09:31.996Z,0.86
2018-03-28T22:11:59.510Z,0.89
2018-03-28T22:14:27.008Z,0.94
2018-03-28T22:16:54.502Z,0.95
2018-03-28T22:19:21.959Z,1.01
2018-03-28T22:21:49.509Z,0.92
2018-03-28T22:24:16.987Z,0.84
2018-03-28T22:26:44.477Z,0.88
2018-03-28T22:29:11.927Z,0.77
2018-03-28T22:31:39.402Z,0.84
2018-03-28T22:34:06.849Z,0.86
2018-03-28T22:36:34.321Z,0.86
2018-03-28T22:39:01.776Z,0.77
2018-03-28T22:41:29.331Z,0.84
2018-03-28T22:43:56.742Z,0.83
2018-03-28T22:46:25.321Z,0.77
2018-03-28T22:48:52.835Z,0.80
2018-03-28T22:51:20.332Z,0.77
2018-03-28T22:53:47.775Z,0.77
2018-03-28T22:56:15.249Z,0.77
2018-03-28T22:58:42.692Z,0.84
2018-03-28T23:01:10.236Z,0.85
2018-03-28T23:03:37.789Z,0.78
2018-03-28T23:06:05.253Z,0.87
2018-03-28T23:08:32.731Z,0.83
2018-03-28T23:11:00.233Z,0.82
2018-03-28T23:13:27.720Z,0.80
2018-03-28T23:15:55.156Z,0.85
2018-03-28T23:18:22.630Z,0.79
2018-03-28T23:20:50.096Z,0.78
2018-03-28T23:23:17.610Z,0.77
2018-03-28T23:25:45.062Z,0.77
2018-03-28T23:28:12.549Z,0.83
2018-03-28T23:30:40.009Z,0.84
2018-03-28T23:33:07.489Z,0.78
2018-03-28T23:35:34.934Z,0.80
2018-03-28T23:38:04.390Z,0.79
2018-03-28T23:40:31.893Z,0.81
2018-03-28T23:42:59.390Z,0.74
2018-03-28T23:45:26.862Z,0.78
2018-03-28T23:47:54.389Z,0.73
2018-03-28T23:50:21.837Z,0.75
2018-03-28T23:52:49.291Z,0.73
2018-03-28T23:55:16.829Z,0.74
2018-03-28T23:57:44.269Z,0.78
